Thursday, May 26, 2016, 10:26 AM EDT

KOXB, Ocean City Municipal Airport

Location: Berlin, MD, United States Lat: 38.317
Local Time: 10:26 AM EDT (14:26 GMT) Lon: -75.117
Time Zone: US/Eastern Elev: 13 ft

Show me the last for .
Show Decoded

2016-05-26 09:53 METAR KOXB 261353Z AUTO 20004KT 10SM CLR 24/19 A3014 RMK AO2 SLP206 T02440194
                 TSNO =
2016-05-26 08:53 METAR KOXB 261253Z AUTO 20003KT 10SM CLR 24/18 A3016 RMK AO2 SLP212 T02440178
                 TSNO =
2016-05-26 07:53 METAR KOXB 261153Z AUTO 23003KT 10SM CLR 22/17 A3016 RMK AO2 SLP212 T02220172
                 10222 20139 51012 TSNO =
2016-05-26 06:53 METAR KOXB 261053Z AUTO 25003KT 10SM CLR 19/16 A3015 RMK AO2 SLP209 T01890161
                 TSNO =
2016-05-26 05:53 METAR KOXB 260953Z AUTO 00000KT 10SM CLR 14/13 A3014 RMK AO2 SLP206 T01440133
                 TSNO =
2016-05-26 04:53 METAR KOXB 260853Z AUTO 29003KT 5SM BR CLR 15/14 A3012 RMK AO2 SLP200 T01500144
                 55002 TSNO =
2016-05-26 03:53 METAR KOXB 260753Z AUTO 00000KT 6SM BR CLR 15/14 A3012 RMK AO2 SLP200 T01500139
                 TSNO =
2016-05-26 02:53 METAR KOXB 260653Z AUTO 00000KT 7SM CLR 16/14 A3012 RMK AO2 SLP201 T01560144
                 TSNO =
2016-05-26 01:53 METAR KOXB 260553Z AUTO 19003KT 9SM CLR 17/15 A3013 RMK AO2 SLP202 T01720150
                 10244 20156 58003 TSNO =
2016-05-26 00:53 METAR KOXB 260453Z AUTO 22003KT 10SM CLR 18/15 A3013 RMK AO2 SLP203 T01780150
                 403000172 TSNO =
2016-05-25 23:53 METAR KOXB 260353Z AUTO 23005KT 10SM CLR 20/14 A3014 RMK AO2 SLP205 T02000139
                 TSNO =
2016-05-25 22:53 METAR KOXB 260253Z AUTO 22005KT 10SM CLR 21/13 A3014 RMK AO2 SLP205 T02060128
                 50007 TSNO =
2016-05-25 21:53 METAR KOXB 260153Z AUTO 22006KT 10SM CLR 21/13 A3014 RMK AO2 SLP206 T02110128
                 TSNO =
2016-05-25 20:53 METAR KOXB 260053Z AUTO 22006KT 10SM CLR 22/13 A3013 RMK AO2 SLP202 T02220133
                 TSNO =
2016-05-25 19:53 METAR KOXB 252353Z AUTO 22005KT 10SM CLR 24/13 A3012 RMK AO2 SLP198 T02440128
                 10300 20244 51001 TSNO =
2016-05-25 18:53 METAR KOXB 252253Z AUTO 29008KT 10SM CLR 27/11 A3012 RMK AO2 SLP197 T02720106
                 TSNO =
2016-05-25 17:53 METAR KOXB 252153Z AUTO 28009G15KT 10SM CLR 28/10 A3012 RMK AO2 SLP199 T02830100
                 TSNO =
2016-05-25 16:53 METAR KOXB 252053Z AUTO VRB06KT 10SM CLR 29/12 A3011 RMK AO2 SLP197 T02890117
                 55006 TSNO =
2016-05-25 15:53 METAR KOXB 251953Z AUTO 28009KT 10SM CLR 29/11 A3011 RMK AO2 SLP197 T02890111
                 TSNO =
2016-05-25 14:53 METAR KOXB 251853Z AUTO VRB04KT 10SM CLR 26/17 A3012 RMK AO2 SLP200 T02610167
                 TSNO =
2016-05-25 13:53 METAR KOXB 251753Z AUTO 19007KT 10SM CLR 27/16 A3013 RMK AO2 SLP203 T02670161
                 10278 20211 58004 TSNO =
2016-05-25 12:53 METAR KOXB 251653Z AUTO 17007KT 150V220 10SM CLR 25/16 A3014 RMK AO2 SLP206
                 T02500161 TSNO =
2016-05-25 11:53 METAR KOXB 251553Z AUTO 14005KT 10SM CLR 26/14 A3014 RMK AO2 SLP206 T02610144
                 TSNO =
2016-05-25 10:53 METAR KOXB 251453Z AUTO 00000KT 10SM CLR 27/13 A3014 RMK AO2 SLP207 T02720128
                 51003 TSNO =

Support USWX by starting your Amazon purchase here.